Terminal Aerodrome Forecast
Issued by NWS

Home | Current Version | Previous Version | Text Only | Print | Product List | Glossary On
Versions: 1 2 3 4 5 6 7 8 9 10 11 12 13 14 15 16 17 18 19 20 21 22 23
000
FTUS43 KDLH 190700 AAA
TAFBRD
TAF AMD
KBRD 190759Z 1908/2006 18012KT P6SM VCSH OVC120 WS020/20050KT
     FM191200 18012G22KT P6SM VCSH SCT025 OVC100
     FM191500 19014G25KT P6SM VCSH BKN025 OVC080
      TEMPO 1916/1920 4SM -TSRA BKN020CB
     FM192000 21008KT P6SM OVC020
     FM200300 VRB04KT 5SM BR VCSH SCT007 BKN030=

USA.gov is the U.S. government's official web portal to all federal, state and local government web resources and services.